< < Back
Terminal Aerodrome Forecast


Current Version              Previous Versions:   1  2  3  4  5  6  7  8  9  

Terminal Aerodrome Forecast

733
FTUS42 KTAE 240521
TAFDHN
TAF
KDHN 240521Z 2406/2506 08008KT P6SM SKC
     FM240900 10008KT P6SM OVC020
     FM241500 11011KT P6SM FEW050=



Latest METAR

495
SAUS70 KWBC 240900 RRG
MTRDHN
METAR KDHN 240853Z AUTO 11008KT 10SM OVC015 22/18 A3024 RMK AO2 SLP236
T02170183 55001


USA.gov is the U.S. government's official web portal to all federal, state and local government web resources and services.